sensor_id;sensor_type;location;lat;lon;timestamp;P1;durP1;ratioP1;P2;durP2;ratioP2
77563;SDS011;66703;48.076;9.220;2024-03-02T00:00:17;28.42;;;26.02;;
77563;SDS011;66703;48.076;9.220;2024-03-02T00:02:45;29.48;;;27.00;;
77563;SDS011;66703;48.076;9.220;2024-03-02T00:05:11;39.67;;;37.03;;
77563;SDS011;66703;48.076;9.220;2024-03-02T00:07:37;33.33;;;30.85;;
77563;SDS011;66703;48.076;9.220;2024-03-02T00:10:07;55.55;;;52.15;;
77563;SDS011;66703;48.076;9.220;2024-03-02T00:12:35;36.42;;;33.70;;
77563;SDS011;66703;48.076;9.220;2024-03-02T00:15:03;40.40;;;37.50;;
77563;SDS011;66703;48.076;9.220;2024-03-02T00:17:30;42.05;;;39.17;;
77563;SDS011;66703;48.076;9.220;2024-03-02T00:19:55;30.13;;;27.58;;
77563;SDS011;66703;48.076;9.220;2024-03-02T00:22:21;26.92;;;24.83;;
77563;SDS011;66703;48.076;9.220;2024-03-02T00:24:47;32.63;;;30.13;;
77563;SDS011;66703;48.076;9.220;2024-03-02T00:27:12;51.83;;;48.42;;
77563;SDS011;66703;48.076;9.220;2024-03-02T00:29:40;41.58;;;34.47;;
77563;SDS011;66703;48.076;9.220;2024-03-02T00:32:09;41.50;;;33.25;;
77563;SDS011;66703;48.076;9.220;2024-03-02T00:34:38;39.67;;;35.67;;
77563;SDS011;66703;48.076;9.220;2024-03-02T00:37:03;50.83;;;45.78;;
77563;SDS011;66703;48.076;9.220;2024-03-02T00:39:28;34.28;;;29.00;;
77563;SDS011;66703;48.076;9.220;2024-03-02T00:41:54;36.40;;;30.90;;
77563;SDS011;66703;48.076;9.220;2024-03-02T00:44:19;41.78;;;35.03;;
77563;SDS011;66703;48.076;9.220;2024-03-02T00:46:49;40.10;;;30.23;;
77563;SDS011;66703;48.076;9.220;2024-03-02T00:49:21;32.97;;;28.45;;
77563;SDS011;66703;48.076;9.220;2024-03-02T00:51:48;34.03;;;28.95;;
77563;SDS011;66703;48.076;9.220;2024-03-02T00:54:14;38.22;;;33.95;;
77563;SDS011;66703;48.076;9.220;2024-03-02T00:56:40;36.55;;;33.00;;
77563;SDS011;66703;48.076;9.220;2024-03-02T00:59:06;35.90;;;33.38;;
77563;SDS011;66703;48.076;9.220;2024-03-02T01:01:33;40.53;;;37.78;;
77563;SDS011;66703;48.076;9.220;2024-03-02T01:03:59;31.10;;;28.85;;
77563;SDS011;66703;48.076;9.220;2024-03-02T01:06:24;29.98;;;27.80;;
77563;SDS011;66703;48.076;9.220;2024-03-02T01:08:49;33.03;;;30.83;;
77563;SDS011;66703;48.076;9.220;2024-03-02T01:11:16;25.27;;;23.13;;
77563;SDS011;66703;48.076;9.220;2024-03-02T01:13:42;37.58;;;35.15;;
77563;SDS011;66703;48.076;9.220;2024-03-02T01:16:08;20.90;;;19.08;;
77563;SDS011;66703;48.076;9.220;2024-03-02T01:18:33;36.83;;;34.15;;
77563;SDS011;66703;48.076;9.220;2024-03-02T01:20:59;50.17;;;47.50;;
77563;SDS011;66703;48.076;9.220;2024-03-02T01:23:24;29.88;;;27.67;;
77563;SDS011;66703;48.076;9.220;2024-03-02T01:25:50;26.77;;;24.73;;
77563;SDS011;66703;48.076;9.220;2024-03-02T01:28:16;42.47;;;39.72;;
77563;SDS011;66703;48.076;9.220;2024-03-02T01:30:42;37.67;;;35.17;;
77563;SDS011;66703;48.076;9.220;2024-03-02T01:33:07;37.50;;;34.60;;
77563;SDS011;66703;48.076;9.220;2024-03-02T01:35:33;33.88;;;31.08;;
77563;SDS011;66703;48.076;9.220;2024-03-02T01:37:59;33.05;;;30.35;;
77563;SDS011;66703;48.076;9.220;2024-03-02T01:40:25;43.72;;;40.28;;
77563;SDS011;66703;48.076;9.220;2024-03-02T01:42:51;34.30;;;31.60;;
77563;SDS011;66703;48.076;9.220;2024-03-02T01:45:17;34.22;;;31.30;;
77563;SDS011;66703;48.076;9.220;2024-03-02T01:47:42;40.58;;;37.65;;
77563;SDS011;66703;48.076;9.220;2024-03-02T01:50:08;42.72;;;39.35;;
77563;SDS011;66703;48.076;9.220;2024-03-02T01:52:34;32.80;;;30.48;;
77563;SDS011;66703;48.076;9.220;2024-03-02T01:54:59;42.97;;;40.15;;
77563;SDS011;66703;48.076;9.220;2024-03-02T01:57:24;34.53;;;31.88;;
77563;SDS011;66703;48.076;9.220;2024-03-02T01:59:50;35.38;;;33.05;;
77563;SDS011;66703;48.076;9.220;2024-03-02T02:02:16;28.83;;;27.00;;
77563;SDS011;66703;48.076;9.220;2024-03-02T02:04:41;39.05;;;36.13;;
77563;SDS011;66703;48.076;9.220;2024-03-02T02:07:07;28.85;;;26.63;;
77563;SDS011;66703;48.076;9.220;2024-03-02T02:09:33;36.13;;;34.13;;
77563;SDS011;66703;48.076;9.220;2024-03-02T02:11:58;33.80;;;31.55;;
77563;SDS011;66703;48.076;9.220;2024-03-02T02:14:24;22.88;;;20.52;;
77563;SDS011;66703;48.076;9.220;2024-03-02T02:16:49;39.35;;;37.35;;
77563;SDS011;66703;48.076;9.220;2024-03-02T02:19:15;21.25;;;19.83;;
77563;SDS011;66703;48.076;9.220;2024-03-02T02:21:43;19.95;;;15.88;;
77563;SDS011;66703;48.076;9.220;2024-03-02T02:24:09;45.17;;;42.72;;
77563;SDS011;66703;48.076;9.220;2024-03-02T02:26:34;39.92;;;37.78;;
77563;SDS011;66703;48.076;9.220;2024-03-02T02:29:00;28.98;;;27.05;;
77563;SDS011;66703;48.076;9.220;2024-03-02T02:31:25;32.55;;;30.65;;
77563;SDS011;66703;48.076;9.220;2024-03-02T02:33:51;49.58;;;46.85;;
77563;SDS011;66703;48.076;9.220;2024-03-02T02:36:16;42.95;;;40.50;;
77563;SDS011;66703;48.076;9.220;2024-03-02T02:38:42;36.30;;;33.95;;
77563;SDS011;66703;48.076;9.220;2024-03-02T02:41:09;27.63;;;25.13;;
77563;SDS011;66703;48.076;9.220;2024-03-02T02:43:35;42.28;;;39.95;;
77563;SDS011;66703;48.076;9.220;2024-03-02T02:46:00;38.65;;;35.13;;
77563;SDS011;66703;48.076;9.220;2024-03-02T02:48:25;41.00;;;38.00;;
77563;SDS011;66703;48.076;9.220;2024-03-02T02:50:51;43.83;;;40.97;;
77563;SDS011;66703;48.076;9.220;2024-03-02T02:53:16;37.47;;;35.28;;
77563;SDS011;66703;48.076;9.220;2024-03-02T02:55:41;35.90;;;33.85;;
77563;SDS011;66703;48.076;9.220;2024-03-02T02:58:08;46.80;;;44.08;;
77563;SDS011;66703;48.076;9.220;2024-03-02T03:00:34;40.13;;;37.60;;
77563;SDS011;66703;48.076;9.220;2024-03-02T03:03:01;36.95;;;34.38;;
77563;SDS011;66703;48.076;9.220;2024-03-02T03:05:27;34.60;;;32.03;;
77563;SDS011;66703;48.076;9.220;2024-03-02T03:07:52;38.45;;;36.10;;
77563;SDS011;66703;48.076;9.220;2024-03-02T03:10:18;30.67;;;27.65;;
77563;SDS011;66703;48.076;9.220;2024-03-02T03:12:43;36.60;;;33.72;;
77563;SDS011;66703;48.076;9.220;2024-03-02T03:15:09;37.97;;;35.05;;
77563;SDS011;66703;48.076;9.220;2024-03-02T03:17:35;41.60;;;39.45;;
77563;SDS011;66703;48.076;9.220;2024-03-02T03:20:02;40.83;;;38.40;;
77563;SDS011;66703;48.076;9.220;2024-03-02T03:22:29;37.88;;;35.72;;
77563;SDS011;66703;48.076;9.220;2024-03-02T03:24:54;38.15;;;36.03;;
77563;SDS011;66703;48.076;9.220;2024-03-02T03:27:20;21.67;;;19.70;;
77563;SDS011;66703;48.076;9.220;2024-03-02T03:29:45;28.33;;;26.63;;
77563;SDS011;66703;48.076;9.220;2024-03-02T03:32:10;36.45;;;34.50;;
77563;SDS011;66703;48.076;9.220;2024-03-02T03:34:36;23.08;;;21.13;;
77563;SDS011;66703;48.076;9.220;2024-03-02T03:37:02;31.60;;;30.05;;
77563;SDS011;66703;48.076;9.220;2024-03-02T03:39:27;32.15;;;30.35;;
77563;SDS011;66703;48.076;9.220;2024-03-02T03:41:53;28.92;;;27.05;;
77563;SDS011;66703;48.076;9.220;2024-03-02T03:44:19;39.33;;;37.22;;
77563;SDS011;66703;48.076;9.220;2024-03-02T03:46:44;37.63;;;35.03;;
77563;SDS011;66703;48.076;9.220;2024-03-02T03:49:10;33.42;;;31.45;;
77563;SDS011;66703;48.076;9.220;2024-03-02T03:51:35;43.75;;;41.60;;
77563;SDS011;66703;48.076;9.220;2024-03-02T03:54:01;34.90;;;33.13;;
77563;SDS011;66703;48.076;9.220;2024-03-02T03:56:26;38.22;;;36.03;;
77563;SDS011;66703;48.076;9.220;2024-03-02T03:58:52;35.33;;;33.65;;
77563;SDS011;66703;48.076;9.220;2024-03-02T04:01:17;36.83;;;34.78;;
77563;SDS011;66703;48.076;9.220;2024-03-02T04:03:43;29.95;;;27.98;;
77563;SDS011;66703;48.076;9.220;2024-03-02T04:06:08;29.73;;;27.83;;
77563;SDS011;66703;48.076;9.220;2024-03-02T04:08:33;48.47;;;45.85;;
77563;SDS011;66703;48.076;9.220;2024-03-02T04:10:59;29.25;;;27.38;;
77563;SDS011;66703;48.076;9.220;2024-03-02T04:13:24;31.45;;;29.52;;
77563;SDS011;66703;48.076;9.220;2024-03-02T04:15:50;17.95;;;16.48;;
77563;SDS011;66703;48.076;9.220;2024-03-02T04:18:15;37.15;;;35.05;;
77563;SDS011;66703;48.076;9.220;2024-03-02T04:20:41;31.40;;;29.50;;
77563;SDS011;66703;48.076;9.220;2024-03-02T04:23:06;28.13;;;26.20;;
77563;SDS011;66703;48.076;9.220;2024-03-02T04:25:33;35.85;;;33.95;;
77563;SDS011;66703;48.076;9.220;2024-03-02T04:27:58;24.58;;;23.02;;
77563;SDS011;66703;48.076;9.220;2024-03-02T04:30:24;26.55;;;24.85;;
77563;SDS011;66703;48.076;9.220;2024-03-02T04:32:50;33.80;;;31.85;;
77563;SDS011;66703;48.076;9.220;2024-03-02T04:35:16;33.10;;;31.35;;
77563;SDS011;66703;48.076;9.220;2024-03-02T04:37:41;36.05;;;34.03;;
77563;SDS011;66703;48.076;9.220;2024-03-02T04:40:07;32.50;;;30.60;;
77563;SDS011;66703;48.076;9.220;2024-03-02T04:42:35;15.95;;;14.55;;
77563;SDS011;66703;48.076;9.220;2024-03-02T04:45:01;36.55;;;34.40;;
77563;SDS011;66703;48.076;9.220;2024-03-02T04:47:27;34.78;;;32.85;;
77563;SDS011;66703;48.076;9.220;2024-03-02T04:49:52;31.15;;;29.30;;
77563;SDS011;66703;48.076;9.220;2024-03-02T04:52:17;26.15;;;24.35;;
77563;SDS011;66703;48.076;9.220;2024-03-02T04:54:43;18.38;;;16.90;;
77563;SDS011;66703;48.076;9.220;2024-03-02T04:57:27;31.13;;;29.17;;
77563;SDS011;66703;48.076;9.220;2024-03-02T04:59:52;28.25;;;26.23;;
77563;SDS011;66703;48.076;9.220;2024-03-02T05:02:17;41.60;;;38.85;;
77563;SDS011;66703;48.076;9.220;2024-03-02T05:04:43;31.58;;;28.25;;
77563;SDS011;66703;48.076;9.220;2024-03-02T05:07:08;32.03;;;29.42;;
77563;SDS011;66703;48.076;9.220;2024-03-02T05:09:33;38.40;;;35.75;;
77563;SDS011;66703;48.076;9.220;2024-03-02T05:11:59;30.05;;;27.17;;
77563;SDS011;66703;48.076;9.220;2024-03-02T05:14:42;40.20;;;36.88;;
77563;SDS011;66703;48.076;9.220;2024-03-02T05:17:08;28.10;;;26.17;;
77563;SDS011;66703;48.076;9.220;2024-03-02T05:19:33;30.48;;;28.35;;
77563;SDS011;66703;48.076;9.220;2024-03-02T05:21:58;34.17;;;31.95;;
77563;SDS011;66703;48.076;9.220;2024-03-02T05:24:24;32.45;;;30.25;;
77563;SDS011;66703;48.076;9.220;2024-03-02T05:26:52;35.10;;;32.55;;
77563;SDS011;66703;48.076;9.220;2024-03-02T05:29:18;29.02;;;26.65;;
77563;SDS011;66703;48.076;9.220;2024-03-02T05:31:43;36.88;;;34.15;;
77563;SDS011;66703;48.076;9.220;2024-03-02T05:34:09;31.88;;;29.00;;
77563;SDS011;66703;48.076;9.220;2024-03-02T05:36:34;33.65;;;31.25;;
77563;SDS011;66703;48.076;9.220;2024-03-02T05:39:00;28.42;;;26.42;;
77563;SDS011;66703;48.076;9.220;2024-03-02T05:41:26;23.98;;;22.20;;
77563;SDS011;66703;48.076;9.220;2024-03-02T05:43:51;31.90;;;29.90;;
77563;SDS011;66703;48.076;9.220;2024-03-02T05:46:17;30.88;;;28.50;;
77563;SDS011;66703;48.076;9.220;2024-03-02T05:48:42;20.73;;;19.13;;
77563;SDS011;66703;48.076;9.220;2024-03-02T05:51:07;27.45;;;24.75;;
77563;SDS011;66703;48.076;9.220;2024-03-02T05:53:33;41.53;;;39.13;;
77563;SDS011;66703;48.076;9.220;2024-03-02T05:55:58;29.25;;;26.75;;
77563;SDS011;66703;48.076;9.220;2024-03-02T05:58:24;28.83;;;26.52;;
77563;SDS011;66703;48.076;9.220;2024-03-02T06:01:08;30.55;;;28.40;;
77563;SDS011;66703;48.076;9.220;2024-03-02T06:03:33;28.52;;;25.58;;
77563;SDS011;66703;48.076;9.220;2024-03-02T06:05:59;26.30;;;24.60;;
77563;SDS011;66703;48.076;9.220;2024-03-02T06:08:24;26.40;;;24.52;;
77563;SDS011;66703;48.076;9.220;2024-03-02T06:10:50;37.85;;;35.40;;
77563;SDS011;66703;48.076;9.220;2024-03-02T06:13:15;29.17;;;27.23;;
77563;SDS011;66703;48.076;9.220;2024-03-02T06:15:40;31.35;;;29.17;;
77563;SDS011;66703;48.076;9.220;2024-03-02T06:18:06;31.90;;;29.67;;
77563;SDS011;66703;48.076;9.220;2024-03-02T06:20:33;34.53;;;32.20;;
77563;SDS011;66703;48.076;9.220;2024-03-02T06:22:58;25.33;;;23.50;;
77563;SDS011;66703;48.076;9.220;2024-03-02T06:25:24;31.48;;;29.30;;
77563;SDS011;66703;48.076;9.220;2024-03-02T06:27:50;31.95;;;29.65;;
77563;SDS011;66703;48.076;9.220;2024-03-02T06:30:16;36.60;;;34.35;;
77563;SDS011;66703;48.076;9.220;2024-03-02T06:32:41;31.55;;;29.75;;
77563;SDS011;66703;48.076;9.220;2024-03-02T06:35:07;23.95;;;22.45;;
77563;SDS011;66703;48.076;9.220;2024-03-02T06:37:35;33.00;;;30.95;;
77563;SDS011;66703;48.076;9.220;2024-03-02T06:40:04;33.70;;;32.05;;
77563;SDS011;66703;48.076;9.220;2024-03-02T06:42:33;27.75;;;25.92;;
77563;SDS011;66703;48.076;9.220;2024-03-02T06:44:59;33.92;;;31.90;;
77563;SDS011;66703;48.076;9.220;2024-03-02T06:47:25;25.90;;;24.15;;
77563;SDS011;66703;48.076;9.220;2024-03-02T06:49:51;19.60;;;17.77;;
77563;SDS011;66703;48.076;9.220;2024-03-02T06:52:16;34.58;;;32.30;;
77563;SDS011;66703;48.076;9.220;2024-03-02T06:54:45;33.97;;;32.05;;
77563;SDS011;66703;48.076;9.220;2024-03-02T06:57:11;22.67;;;20.42;;
77563;SDS011;66703;48.076;9.220;2024-03-02T06:59:37;33.83;;;31.67;;
77563;SDS011;66703;48.076;9.220;2024-03-02T07:02:02;25.48;;;23.23;;
77563;SDS011;66703;48.076;9.220;2024-03-02T07:04:28;27.38;;;25.15;;
77563;SDS011;66703;48.076;9.220;2024-03-02T07:06:54;33.80;;;31.23;;
77563;SDS011;66703;48.076;9.220;2024-03-02T07:09:20;32.80;;;30.17;;
77563;SDS011;66703;48.076;9.220;2024-03-02T07:11:50;37.50;;;34.85;;
77563;SDS011;66703;48.076;9.220;2024-03-02T07:14:16;44.45;;;41.40;;
77563;SDS011;66703;48.076;9.220;2024-03-02T07:16:42;22.90;;;18.10;;
77563;SDS011;66703;48.076;9.220;2024-03-02T07:19:16;37.33;;;34.17;;
77563;SDS011;66703;48.076;9.220;2024-03-02T07:21:42;36.63;;;33.78;;
77563;SDS011;66703;48.076;9.220;2024-03-02T07:24:07;31.38;;;28.58;;
77563;SDS011;66703;48.076;9.220;2024-03-02T07:26:37;27.10;;;24.52;;
77563;SDS011;66703;48.076;9.220;2024-03-02T07:29:03;39.08;;;35.72;;
77563;SDS011;66703;48.076;9.220;2024-03-02T07:31:29;28.75;;;26.30;;
77563;SDS011;66703;48.076;9.220;2024-03-02T07:33:54;25.50;;;22.75;;
77563;SDS011;66703;48.076;9.220;2024-03-02T07:36:20;32.75;;;29.90;;
77563;SDS011;66703;48.076;9.220;2024-03-02T07:38:45;33.35;;;31.23;;
77563;SDS011;66703;48.076;9.220;2024-03-02T07:41:11;34.78;;;31.73;;
77563;SDS011;66703;48.076;9.220;2024-03-02T07:43:37;27.20;;;25.42;;
77563;SDS011;66703;48.076;9.220;2024-03-02T07:46:03;27.80;;;25.75;;
77563;SDS011;66703;48.076;9.220;2024-03-02T07:48:28;29.38;;;27.20;;
77563;SDS011;66703;48.076;9.220;2024-03-02T07:50:55;31.27;;;29.10;;
77563;SDS011;66703;48.076;9.220;2024-03-02T07:53:24;29.90;;;27.98;;
77563;SDS011;66703;48.076;9.220;2024-03-02T07:55:49;28.67;;;26.63;;
77563;SDS011;66703;48.076;9.220;2024-03-02T07:58:15;27.23;;;25.08;;
77563;SDS011;66703;48.076;9.220;2024-03-02T08:00:40;24.02;;;22.00;;
77563;SDS011;66703;48.076;9.220;2024-03-02T08:03:06;32.88;;;30.88;;
77563;SDS011;66703;48.076;9.220;2024-03-02T08:05:32;20.15;;;18.35;;
77563;SDS011;66703;48.076;9.220;2024-03-02T08:07:57;28.80;;;26.60;;
77563;SDS011;66703;48.076;9.220;2024-03-02T08:10:23;31.02;;;28.88;;
77563;SDS011;66703;48.076;9.220;2024-03-02T08:12:48;25.30;;;23.60;;
77563;SDS011;66703;48.076;9.220;2024-03-02T08:15:13;30.88;;;29.00;;
77563;SDS011;66703;48.076;9.220;2024-03-02T08:17:39;39.22;;;36.58;;
77563;SDS011;66703;48.076;9.220;2024-03-02T08:20:10;36.47;;;34.35;;
77563;SDS011;66703;48.076;9.220;2024-03-02T08:22:37;33.72;;;31.60;;
77563;SDS011;66703;48.076;9.220;2024-03-02T08:25:03;22.63;;;20.48;;
77563;SDS011;66703;48.076;9.220;2024-03-02T08:27:30;21.85;;;19.95;;
77563;SDS011;66703;48.076;9.220;2024-03-02T08:29:57;36.45;;;34.25;;
77563;SDS011;66703;48.076;9.220;2024-03-02T08:32:22;26.42;;;24.52;;
77563;SDS011;66703;48.076;9.220;2024-03-02T08:34:48;23.58;;;21.88;;
77563;SDS011;66703;48.076;9.220;2024-03-02T08:37:13;29.38;;;27.08;;
77563;SDS011;66703;48.076;9.220;2024-03-02T08:39:38;29.30;;;26.92;;
77563;SDS011;66703;48.076;9.220;2024-03-02T08:42:04;29.80;;;27.92;;
77563;SDS011;66703;48.076;9.220;2024-03-02T08:44:30;29.33;;;27.33;;
77563;SDS011;66703;48.076;9.220;2024-03-02T08:46:55;29.65;;;27.42;;
77563;SDS011;66703;48.076;9.220;2024-03-02T08:49:21;17.63;;;15.30;;
77563;SDS011;66703;48.076;9.220;2024-03-02T08:51:46;39.60;;;37.10;;
77563;SDS011;66703;48.076;9.220;2024-03-02T08:54:19;26.17;;;24.00;;
77563;SDS011;66703;48.076;9.220;2024-03-02T08:56:48;32.47;;;30.35;;
77563;SDS011;66703;48.076;9.220;2024-03-02T08:59:14;29.08;;;27.08;;
77563;SDS011;66703;48.076;9.220;2024-03-02T09:01:40;23.70;;;21.77;;
77563;SDS011;66703;48.076;9.220;2024-03-02T09:04:07;35.25;;;33.22;;
77563;SDS011;66703;48.076;9.220;2024-03-02T09:06:33;26.27;;;24.20;;
77563;SDS011;66703;48.076;9.220;2024-03-02T09:08:59;25.63;;;23.42;;
77563;SDS011;66703;48.076;9.220;2024-03-02T09:11:24;25.38;;;22.92;;
77563;SDS011;66703;48.076;9.220;2024-03-02T09:13:50;24.83;;;23.17;;
77563;SDS011;66703;48.076;9.220;2024-03-02T09:16:15;18.92;;;16.98;;
77563;SDS011;66703;48.076;9.220;2024-03-02T09:18:41;23.35;;;21.52;;
77563;SDS011;66703;48.076;9.220;2024-03-02T09:21:06;25.00;;;23.08;;
77563;SDS011;66703;48.076;9.220;2024-03-02T09:23:32;22.25;;;20.58;;
77563;SDS011;66703;48.076;9.220;2024-03-02T09:25:58;22.38;;;20.67;;
77563;SDS011;66703;48.076;9.220;2024-03-02T09:28:24;30.20;;;28.40;;
77563;SDS011;66703;48.076;9.220;2024-03-02T09:30:50;24.83;;;22.92;;
77563;SDS011;66703;48.076;9.220;2024-03-02T09:33:15;20.42;;;18.85;;
77563;SDS011;66703;48.076;9.220;2024-03-02T09:35:41;19.98;;;18.42;;
77563;SDS011;66703;48.076;9.220;2024-03-02T09:38:06;20.10;;;18.38;;
77563;SDS011;66703;48.076;9.220;2024-03-02T09:40:32;21.08;;;19.52;;
77563;SDS011;66703;48.076;9.220;2024-03-02T09:42:57;18.83;;;17.38;;
77563;SDS011;66703;48.076;9.220;2024-03-02T09:45:23;18.48;;;16.85;;
77563;SDS011;66703;48.076;9.220;2024-03-02T09:47:49;25.17;;;23.25;;
77563;SDS011;66703;48.076;9.220;2024-03-02T09:50:15;15.48;;;13.93;;
77563;SDS011;66703;48.076;9.220;2024-03-02T09:52:43;15.35;;;12.77;;
77563;SDS011;66703;48.076;9.220;2024-03-02T09:55:09;19.58;;;17.65;;
77563;SDS011;66703;48.076;9.220;2024-03-02T09:57:36;21.42;;;19.63;;
77563;SDS011;66703;48.076;9.220;2024-03-02T10:00:02;23.40;;;20.88;;
77563;SDS011;66703;48.076;9.220;2024-03-02T10:02:28;19.95;;;18.40;;
77563;SDS011;66703;48.076;9.220;2024-03-02T10:04:53;20.45;;;18.92;;
77563;SDS011;66703;48.076;9.220;2024-03-02T10:07:18;20.52;;;18.88;;
77563;SDS011;66703;48.076;9.220;2024-03-02T10:09:47;16.17;;;14.75;;
77563;SDS011;66703;48.076;9.220;2024-03-02T10:12:14;25.67;;;24.02;;
77563;SDS011;66703;48.076;9.220;2024-03-02T10:14:40;18.58;;;17.17;;
77563;SDS011;66703;48.076;9.220;2024-03-02T10:17:07;19.08;;;17.50;;
77563;SDS011;66703;48.076;9.220;2024-03-02T10:19:34;19.38;;;18.05;;
77563;SDS011;66703;48.076;9.220;2024-03-02T10:22:09;18.65;;;17.10;;
77563;SDS011;66703;48.076;9.220;2024-03-02T10:24:36;14.13;;;12.82;;
77563;SDS011;66703;48.076;9.220;2024-03-02T10:29:36;17.73;;;16.42;;
77563;SDS011;66703;48.076;9.220;2024-03-02T10:32:02;13.02;;;11.93;;
77563;SDS011;66703;48.076;9.220;2024-03-02T10:34:28;11.80;;;10.80;;
77563;SDS011;66703;48.076;9.220;2024-03-02T10:36:53;9.02;;;8.32;;
77563;SDS011;66703;48.076;9.220;2024-03-02T10:39:20;12.50;;;11.43;;
77563;SDS011;66703;48.076;9.220;2024-03-02T10:41:46;12.68;;;11.48;;
77563;SDS011;66703;48.076;9.220;2024-03-02T10:44:14;11.70;;;10.70;;
77563;SDS011;66703;48.076;9.220;2024-03-02T10:46:41;9.73;;;8.73;;
77563;SDS011;66703;48.076;9.220;2024-03-02T10:49:09;12.32;;;11.02;;
77563;SDS011;66703;48.076;9.220;2024-03-02T10:51:34;13.52;;;12.32;;
77563;SDS011;66703;48.076;9.220;2024-03-02T10:54:01;12.02;;;11.10;;
77563;SDS011;66703;48.076;9.220;2024-03-02T10:56:29;10.75;;;9.77;;
77563;SDS011;66703;48.076;9.220;2024-03-02T10:58:55;14.73;;;13.73;;
77563;SDS011;66703;48.076;9.220;2024-03-02T11:01:27;12.27;;;11.18;;
77563;SDS011;66703;48.076;9.220;2024-03-02T11:03:54;11.73;;;10.73;;
77563;SDS011;66703;48.076;9.220;2024-03-02T11:06:21;10.77;;;9.85;;
77563;SDS011;66703;48.076;9.220;2024-03-02T11:08:47;10.57;;;9.57;;
77563;SDS011;66703;48.076;9.220;2024-03-02T11:11:15;11.98;;;11.07;;
77563;SDS011;66703;48.076;9.220;2024-03-02T11:13:47;14.27;;;13.18;;
77563;SDS011;66703;48.076;9.220;2024-03-02T11:16:25;12.45;;;11.45;;
77563;SDS011;66703;48.076;9.220;2024-03-02T11:19:03;10.52;;;9.68;;
77563;SDS011;66703;48.076;9.220;2024-03-02T11:21:31;10.18;;;9.32;;
77563;SDS011;66703;48.076;9.220;2024-03-02T11:23:58;9.48;;;8.77;;
77563;SDS011;66703;48.076;9.220;2024-03-02T11:26:23;11.60;;;10.80;;
77563;SDS011;66703;48.076;9.220;2024-03-02T11:28:49;9.45;;;8.70;;
77563;SDS011;66703;48.076;9.220;2024-03-02T11:31:16;8.25;;;7.28;;
77563;SDS011;66703;48.076;9.220;2024-03-02T11:33:42;9.50;;;8.70;;
77563;SDS011;66703;48.076;9.220;2024-03-02T11:36:08;8.73;;;8.05;;
77563;SDS011;66703;48.076;9.220;2024-03-02T11:38:34;8.63;;;7.97;;
77563;SDS011;66703;48.076;9.220;2024-03-02T11:41:05;7.70;;;7.10;;
77563;SDS011;66703;48.076;9.220;2024-03-02T11:43:33;8.45;;;7.20;;
77563;SDS011;66703;48.076;9.220;2024-03-02T11:46:04;8.57;;;7.93;;
77563;SDS011;66703;48.076;9.220;2024-03-02T11:48:32;7.15;;;6.47;;
77563;SDS011;66703;48.076;9.220;2024-03-02T11:50:59;9.10;;;8.32;;
77563;SDS011;66703;48.076;9.220;2024-03-02T11:53:26;7.05;;;6.55;;
77563;SDS011;66703;48.076;9.220;2024-03-02T11:55:53;7.45;;;6.75;;
77563;SDS011;66703;48.076;9.220;2024-03-02T11:58:20;6.65;;;6.03;;
77563;SDS011;66703;48.076;9.220;2024-03-02T12:00:54;10.10;;;9.23;;
77563;SDS011;66703;48.076;9.220;2024-03-02T12:03:21;7.00;;;6.40;;
77563;SDS011;66703;48.076;9.220;2024-03-02T12:05:51;7.43;;;6.90;;
77563;SDS011;66703;48.076;9.220;2024-03-02T12:08:17;6.43;;;5.82;;
77563;SDS011;66703;48.076;9.220;2024-03-02T12:10:43;6.93;;;6.32;;
77563;SDS011;66703;48.076;9.220;2024-03-02T12:13:21;6.97;;;6.40;;
77563;SDS011;66703;48.076;9.220;2024-03-02T12:15:47;5.60;;;5.10;;
77563;SDS011;66703;48.076;9.220;2024-03-02T12:18:13;6.07;;;5.55;;
77563;SDS011;66703;48.076;9.220;2024-03-02T12:20:38;4.78;;;4.32;;
77563;SDS011;66703;48.076;9.220;2024-03-02T12:23:04;5.20;;;4.78;;
77563;SDS011;66703;48.076;9.220;2024-03-02T12:25:30;6.25;;;5.82;;
77563;SDS011;66703;48.076;9.220;2024-03-02T12:27:57;5.78;;;5.28;;
77563;SDS011;66703;48.076;9.220;2024-03-02T12:30:23;5.68;;;5.18;;
77563;SDS011;66703;48.076;9.220;2024-03-02T12:32:49;4.43;;;3.90;;
77563;SDS011;66703;48.076;9.220;2024-03-02T12:35:15;5.00;;;4.60;;
77563;SDS011;66703;48.076;9.220;2024-03-02T12:37:44;4.65;;;4.25;;
77563;SDS011;66703;48.076;9.220;2024-03-02T12:40:11;4.85;;;4.45;;
77563;SDS011;66703;48.076;9.220;2024-03-02T12:42:38;5.13;;;4.82;;
77563;SDS011;66703;48.076;9.220;2024-03-02T12:45:04;4.72;;;3.90;;
77563;SDS011;66703;48.076;9.220;2024-03-02T12:47:30;5.05;;;4.65;;
77563;SDS011;66703;48.076;9.220;2024-03-02T12:49:55;4.75;;;4.35;;
77563;SDS011;66703;48.076;9.220;2024-03-02T12:52:21;4.07;;;3.67;;
77563;SDS011;66703;48.076;9.220;2024-03-02T12:54:47;4.40;;;4.00;;
77563;SDS011;66703;48.076;9.220;2024-03-02T12:57:19;4.97;;;4.60;;
77563;SDS011;66703;48.076;9.220;2024-03-02T12:59:45;4.57;;;4.28;;
77563;SDS011;66703;48.076;9.220;2024-03-02T13:02:16;5.00;;;4.43;;
77563;SDS011;66703;48.076;9.220;2024-03-02T13:04:43;5.63;;;4.93;;
77563;SDS011;66703;48.076;9.220;2024-03-02T13:07:08;5.40;;;4.90;;
77563;SDS011;66703;48.076;9.220;2024-03-02T13:09:34;5.20;;;4.70;;
77563;SDS011;66703;48.076;9.220;2024-03-02T13:12:00;5.65;;;5.10;;
77563;SDS011;66703;48.076;9.220;2024-03-02T13:14:26;5.47;;;5.07;;
77563;SDS011;66703;48.076;9.220;2024-03-02T13:16:51;5.78;;;5.38;;
77563;SDS011;66703;48.076;9.220;2024-03-02T13:19:22;6.15;;;5.65;;
77563;SDS011;66703;48.076;9.220;2024-03-02T13:21:47;5.50;;;5.10;;
77563;SDS011;66703;48.076;9.220;2024-03-02T13:24:13;6.20;;;5.80;;
77563;SDS011;66703;48.076;9.220;2024-03-02T13:26:38;4.50;;;4.20;;
77563;SDS011;66703;48.076;9.220;2024-03-02T13:29:05;4.03;;;3.33;;
77563;SDS011;66703;48.076;9.220;2024-03-02T13:31:30;4.10;;;3.80;;
77563;SDS011;66703;48.076;9.220;2024-03-02T13:33:56;4.20;;;3.90;;
77563;SDS011;66703;48.076;9.220;2024-03-02T13:36:21;4.28;;;3.88;;
77563;SDS011;66703;48.076;9.220;2024-03-02T13:38:46;4.72;;;4.32;;
77563;SDS011;66703;48.076;9.220;2024-03-02T13:41:12;4.53;;;4.07;;
77563;SDS011;66703;48.076;9.220;2024-03-02T13:43:38;4.50;;;4.10;;
77563;SDS011;66703;48.076;9.220;2024-03-02T13:46:04;4.28;;;3.67;;
77563;SDS011;66703;48.076;9.220;2024-03-02T13:48:30;4.20;;;3.90;;
77563;SDS011;66703;48.076;9.220;2024-03-02T13:50:56;6.53;;;6.03;;
77563;SDS011;66703;48.076;9.220;2024-03-02T13:53:21;5.88;;;5.40;;
77563;SDS011;66703;48.076;9.220;2024-03-02T13:55:47;6.35;;;5.95;;
77563;SDS011;66703;48.076;9.220;2024-03-02T13:58:12;6.10;;;5.70;;
77563;SDS011;66703;48.076;9.220;2024-03-02T14:00:38;5.93;;;5.43;;
77563;SDS011;66703;48.076;9.220;2024-03-02T14:03:04;6.13;;;5.63;;
77563;SDS011;66703;48.076;9.220;2024-03-02T14:05:31;4.65;;;4.25;;
77563;SDS011;66703;48.076;9.220;2024-03-02T14:07:57;7.95;;;7.45;;
77563;SDS011;66703;48.076;9.220;2024-03-02T14:10:23;6.30;;;5.28;;
77563;SDS011;66703;48.076;9.220;2024-03-02T14:12:49;6.03;;;5.53;;
77563;SDS011;66703;48.076;9.220;2024-03-02T14:15:14;6.05;;;5.35;;
77563;SDS011;66703;48.076;9.220;2024-03-02T14:17:40;5.50;;;5.00;;
77563;SDS011;66703;48.076;9.220;2024-03-02T14:20:05;6.00;;;5.50;;
77563;SDS011;66703;48.076;9.220;2024-03-02T14:22:31;7.00;;;6.30;;
77563;SDS011;66703;48.076;9.220;2024-03-02T14:24:59;6.20;;;5.70;;